Steeleville, Illinois
Current Conditions -  °F | °C
As of 3:55 PM on Thursday 27 Nov 2014 (Local Time) from KSAR Reporting Station
Clear Clear  
Wind Chill: 27°   Ceiling: Unl
Heat Index: 32°   Visibility: 10mi
Dew Point: 22°   Wind: 5mph
Humidity: 67%   Direction: 350°N
Pressure: 30.46"   Gusts: NA
Location:  38.01°N, 89.66°W
Report Text: KSAR 272155Z AUTO 35004KT 10SM CLR 00/M05 A3046 RMK AO2 T00001054
Loading
Personal Weather Stations






























Interactive Weather Map New forecast layout! Learn more

10-Day Weather Forecast

Advertisements
Track Severe Weather on mobile